createdAt,value
2018-03-26T00:01:36.554Z,68.60
2018-03-26T00:04:04.127Z,68.60
2018-03-26T00:06:33.040Z,68.70
2018-03-26T00:09:01.742Z,69.00
2018-03-26T00:11:29.502Z,68.90
2018-03-26T00:13:57.034Z,68.80
2018-03-26T00:16:24.590Z,69.00
2018-03-26T00:18:53.646Z,69.10
2018-03-26T00:21:21.138Z,69.10
2018-03-26T00:23:48.589Z,69.40
2018-03-26T00:26:16.465Z,69.40
2018-03-26T00:28:44.695Z,68.80
2018-03-26T00:31:12.202Z,68.70
2018-03-26T00:33:41.040Z,67.50
2018-03-26T00:36:08.487Z,67.50
2018-03-26T00:38:36.630Z,67.30
2018-03-26T00:41:04.209Z,66.70
2018-03-26T00:43:32.464Z,66.00
2018-03-26T00:46:01.450Z,65.90
2018-03-26T00:48:28.923Z,65.90
2018-03-26T00:50:56.377Z,65.80
2018-03-26T00:53:47.187Z,65.70
2018-03-26T00:56:14.647Z,65.70
2018-03-26T00:58:43.130Z,66.00
2018-03-26T01:01:11.851Z,66.20
2018-03-26T01:03:39.367Z,66.20
2018-03-26T01:06:08.354Z,66.30
2018-03-26T01:08:36.651Z,66.30
2018-03-26T01:11:04.202Z,66.30
2018-03-26T01:13:32.486Z,66.40
2018-03-26T01:15:59.992Z,66.80
2018-03-26T01:18:27.494Z,67.10
2018-03-26T01:20:55.818Z,67.30
2018-03-26T01:23:23.530Z,67.30
2018-03-26T01:25:50.998Z,67.10
2018-03-26T01:28:18.555Z,67.40
2018-03-26T01:30:46.764Z,67.30
2018-03-26T01:33:15.014Z,67.70
2018-03-26T01:35:43.350Z,67.70
2018-03-26T01:38:11.278Z,67.70
2018-03-26T01:40:40.158Z,68.00
2018-03-26T01:43:09.335Z,68.00
2018-03-26T01:45:37.620Z,68.00
2018-03-26T01:48:05.850Z,69.10
2018-03-26T01:50:33.412Z,69.10
2018-03-26T01:53:00.875Z,70.30
2018-03-26T01:55:28.347Z,69.50
2018-03-26T01:57:56.582Z,69.50
2018-03-26T02:00:24.546Z,69.20
2018-03-26T02:02:52.362Z,68.90
2018-03-26T02:05:19.836Z,69.10
2018-03-26T02:07:48.693Z,69.00
2018-03-26T02:10:16.194Z,69.20
2018-03-26T02:12:45.150Z,68.50
2018-03-26T02:15:12.652Z,68.50
2018-03-26T02:17:41.619Z,68.80
2018-03-26T02:20:09.086Z,68.80
2018-03-26T02:22:36.553Z,68.80
2018-03-26T02:25:04.022Z,68.60
2018-03-26T02:27:32.925Z,68.60
2018-03-26T02:30:01.172Z,68.60
2018-03-26T02:32:29.054Z,68.40
2018-03-26T02:34:57.343Z,69.10
2018-03-26T02:37:26.498Z,69.20
2018-03-26T02:39:53.966Z,69.10
2018-03-26T02:42:21.706Z,69.70
2018-03-26T02:44:49.203Z,70.00
2018-03-26T02:47:16.666Z,70.10
2018-03-26T02:49:44.252Z,70.00
2018-03-26T02:52:12.462Z,69.90
2018-03-26T02:54:40.892Z,69.90
2018-03-26T02:57:08.715Z,70.10
2018-03-26T02:59:37.315Z,69.20
2018-03-26T03:02:05.664Z,69.60
2018-03-26T03:04:33.889Z,69.60
2018-03-26T03:07:01.435Z,69.40
2018-03-26T03:09:29.316Z,69.00
2018-03-26T03:11:56.775Z,68.70
2018-03-26T03:14:24.338Z,68.70
2018-03-26T03:16:53.011Z,68.60
2018-03-26T03:19:20.586Z,68.60
2018-03-26T03:21:49.625Z,68.50
2018-03-26T03:24:17.137Z,68.40
2018-03-26T03:26:44.599Z,68.60
2018-03-26T03:29:12.834Z,69.30
2018-03-26T03:31:40.629Z,68.50
2018-03-26T03:34:08.390Z,68.50
2018-03-26T03:36:36.370Z,68.50
2018-03-26T03:39:03.830Z,68.60
2018-03-26T03:41:31.302Z,68.60
2018-03-26T03:43:59.312Z,68.60
2018-03-26T03:46:27.127Z,68.70
2018-03-26T03:48:55.605Z,68.50
2018-03-26T03:51:23.886Z,68.00
2018-03-26T03:53:52.233Z,67.80
2018-03-26T03:56:19.782Z,67.90
2018-03-26T03:58:47.544Z,67.90
2018-03-26T04:01:15.091Z,68.00
2018-03-26T04:03:42.870Z,68.40
2018-03-26T04:06:10.475Z,68.20
2018-03-26T04:08:37.933Z,68.20
2018-03-26T04:11:05.390Z,68.30
2018-03-26T04:13:33.974Z,68.10
2018-03-26T04:16:04.534Z,68.10
2018-03-26T04:18:34.786Z,68.50
2018-03-26T04:21:02.931Z,68.30
2018-03-26T04:23:31.180Z,68.80
2018-03-26T04:25:58.703Z,68.70
2018-03-26T04:28:26.935Z,68.80
2018-03-26T04:30:55.901Z,68.90
2018-03-26T04:33:24.182Z,69.10
2018-03-26T04:35:52.579Z,69.10
2018-03-26T04:38:20.347Z,69.20
2018-03-26T04:40:48.690Z,68.90
2018-03-26T04:43:16.579Z,68.80
2018-03-26T04:45:45.007Z,69.20
2018-03-26T04:48:12.482Z,69.20
2018-03-26T04:50:40.974Z,69.50
2018-03-26T04:53:08.516Z,69.80
2018-03-26T04:55:36.653Z,70.50
2018-03-26T04:58:05.034Z,70.60
2018-03-26T05:00:33.250Z,70.50
2018-03-26T05:03:00.726Z,70.40
2018-03-26T05:05:28.918Z,70.70
2018-03-26T05:07:56.373Z,70.70
2018-03-26T05:10:24.526Z,70.50
2018-03-26T05:12:51.991Z,70.50
2018-03-26T05:15:19.465Z,70.60
2018-03-26T05:17:46.933Z,70.20
2018-03-26T05:20:14.702Z,70.50
2018-03-26T05:22:43.262Z,70.60
2018-03-26T05:25:10.682Z,70.40
2018-03-26T05:27:41.006Z,71.00
2018-03-26T05:30:08.570Z,71.00
2018-03-26T05:32:37.506Z,70.90
2018-03-26T05:35:06.362Z,70.20
2018-03-26T05:37:33.920Z,70.20
2018-03-26T05:40:01.387Z,70.00
2018-03-26T05:42:29.415Z,69.50
2018-03-26T05:44:57.641Z,68.90
2018-03-26T05:47:25.127Z,68.80
2018-03-26T05:49:53.310Z,68.60
2018-03-26T05:52:20.762Z,68.50
2018-03-26T05:54:48.321Z,68.20
2018-03-26T05:57:15.795Z,68.00
2018-03-26T05:59:44.454Z,67.80
2018-03-26T06:02:12.050Z,67.80
2018-03-26T06:04:40.063Z,67.70
2018-03-26T06:07:08.162Z,68.30
2018-03-26T06:09:35.788Z,67.50
2018-03-26T06:12:03.459Z,67.40
2018-03-26T06:14:30.916Z,67.40
2018-03-26T06:17:10.122Z,67.30
2018-03-26T06:19:37.602Z,67.30
2018-03-26T06:22:05.470Z,66.70
2018-03-26T06:24:32.938Z,66.70
2018-03-26T06:27:01.306Z,66.80
2018-03-26T06:29:28.774Z,66.60
2018-03-26T06:31:56.639Z,66.40
2018-03-26T06:34:24.192Z,65.90
2018-03-26T06:39:53.742Z,65.30
2018-03-26T06:42:21.218Z,64.80
2018-03-26T06:44:48.866Z,64.80
2018-03-26T06:47:16.322Z,64.10
2018-03-26T06:49:43.902Z,64.00
2018-03-26T06:52:12.414Z,62.90
2018-03-26T06:54:40.634Z,62.50
2018-03-26T06:57:08.094Z,62.50
2018-03-26T06:59:35.550Z,62.30
2018-03-26T07:02:03.015Z,62.20
2018-03-26T07:04:30.482Z,62.20
2018-03-26T07:06:57.943Z,62.40
2018-03-26T07:09:25.402Z,63.20
2018-03-26T07:11:52.869Z,61.90
2018-03-26T07:14:20.525Z,61.30
2018-03-26T07:16:48.715Z,60.70
2018-03-26T07:19:16.774Z,60.60
2018-03-26T07:21:44.246Z,60.60
2018-03-26T07:24:11.692Z,60.10
2018-03-26T07:26:39.582Z,60.00
2018-03-26T07:29:07.904Z,60.10
2018-03-26T07:31:35.559Z,60.00
2018-03-26T07:34:03.058Z,60.00
2018-03-26T07:36:30.606Z,60.00
2018-03-26T07:38:58.067Z,59.90
2018-03-26T07:41:25.842Z,60.50
2018-03-26T07:43:53.942Z,60.30
2018-03-26T07:46:22.518Z,60.00
2018-03-26T07:48:50.880Z,59.60
2018-03-26T07:51:18.336Z,59.50
2018-03-26T07:53:45.959Z,59.60
2018-03-26T07:56:13.463Z,60.20
2018-03-26T07:58:41.683Z,58.90
2018-03-26T08:01:09.845Z,58.90
2018-03-26T08:03:38.247Z,58.90
2018-03-26T08:06:05.699Z,58.80
2018-03-26T08:08:34.550Z,58.60
2018-03-26T08:11:02.013Z,58.60
2018-03-26T08:13:30.762Z,57.80
2018-03-26T08:15:58.210Z,57.80
2018-03-26T08:18:25.703Z,57.40
2018-03-26T08:20:53.154Z,57.20
2018-03-26T08:23:20.616Z,57.50
2018-03-26T08:25:48.083Z,57.30
2018-03-26T08:28:15.544Z,57.30
2018-03-26T08:30:43.003Z,56.80
2018-03-26T08:33:10.469Z,56.90
2018-03-26T08:35:39.419Z,55.90
2018-03-26T08:38:06.878Z,55.90
2018-03-26T08:40:34.346Z,55.30
2018-03-26T08:43:01.817Z,55.00
2018-03-26T08:45:29.702Z,54.50
2018-03-26T08:47:57.970Z,53.70
2018-03-26T08:50:25.476Z,53.70
2018-03-26T08:52:55.042Z,54.10
2018-03-26T08:55:23.723Z,53.30
2018-03-26T08:57:51.278Z,53.20
2018-03-26T09:00:18.734Z,53.20
2018-03-26T09:02:46.418Z,52.70
2018-03-26T09:05:14.738Z,52.70
2018-03-26T09:07:42.202Z,52.60
2018-03-26T09:10:09.694Z,52.70
2018-03-26T09:12:37.958Z,52.10
2018-03-26T09:15:05.409Z,52.40
2018-03-26T09:17:34.275Z,52.80
2018-03-26T09:20:01.719Z,52.20
2018-03-26T09:22:29.188Z,52.40
2018-03-26T09:24:56.638Z,52.40
2018-03-26T09:27:25.584Z,52.40
2018-03-26T09:29:53.062Z,51.40
2018-03-26T09:32:21.319Z,50.20
2018-03-26T09:34:48.854Z,50.20
2018-03-26T09:37:16.514Z,48.70
2018-03-26T09:39:46.431Z,49.10
2018-03-26T09:42:13.916Z,49.60
2018-03-26T09:44:41.580Z,49.50
2018-03-26T09:47:09.351Z,48.60
2018-03-26T09:49:36.814Z,46.90
2018-03-26T09:52:04.280Z,47.40
2018-03-26T09:54:32.509Z,46.60
2018-03-26T09:56:59.978Z,46.60
2018-03-26T09:59:28.194Z,46.60
2018-03-26T10:01:57.367Z,45.10
2018-03-26T10:04:24.833Z,45.00
2018-03-26T10:06:52.285Z,43.10
2018-03-26T10:09:19.846Z,43.10
2018-03-26T10:11:47.307Z,43.50
2018-03-26T10:14:15.676Z,43.60
2018-03-26T10:16:43.240Z,42.70
2018-03-26T10:19:10.711Z,42.50
2018-03-26T10:21:40.372Z,42.10
2018-03-26T10:24:08.478Z,42.00
2018-03-26T10:26:36.100Z,42.40
2018-03-26T10:29:03.542Z,42.30
2018-03-26T10:31:31.397Z,42.10
2018-03-26T10:33:59.620Z,41.00
2018-03-26T10:36:27.109Z,41.20
2018-03-26T10:38:55.278Z,41.10
2018-03-26T10:41:22.744Z,41.80
2018-03-26T10:43:50.198Z,42.10
2018-03-26T10:46:17.667Z,42.80
2018-03-26T10:48:45.488Z,42.10
2018-03-26T10:51:12.957Z,42.60
2018-03-26T10:53:40.415Z,41.80
2018-03-26T10:56:09.238Z,42.00
2018-03-26T10:58:36.702Z,42.30
2018-03-26T11:01:04.935Z,43.90
2018-03-26T11:03:32.402Z,43.10
2018-03-26T11:05:59.858Z,43.80
2018-03-26T11:08:27.433Z,43.90
2018-03-26T11:10:54.995Z,44.10
2018-03-26T11:13:23.182Z,42.60
2018-03-26T11:15:50.646Z,42.80
2018-03-26T11:18:19.154Z,42.60
2018-03-26T11:20:47.102Z,42.20
2018-03-26T11:23:15.339Z,42.70
2018-03-26T11:25:42.918Z,42.60
2018-03-26T11:28:10.379Z,43.00
2018-03-26T11:30:37.955Z,43.70
2018-03-26T11:33:06.177Z,44.20
2018-03-26T11:35:33.639Z,44.20
2018-03-26T11:38:01.126Z,44.70
2018-03-26T11:40:37.654Z,44.70
2018-03-26T11:43:06.286Z,44.60
2018-03-26T11:45:33.746Z,44.80
2018-03-26T11:48:02.022Z,44.00
2018-03-26T11:50:30.360Z,43.60
2018-03-26T11:52:58.229Z,44.00
2018-03-26T11:55:25.690Z,44.10
2018-03-26T11:57:53.150Z,45.10
2018-03-26T12:00:20.605Z,44.50
2018-03-26T12:02:48.222Z,43.80
2018-03-26T12:05:16.488Z,43.90
2018-03-26T12:07:43.952Z,43.80
2018-03-26T12:10:11.407Z,43.50
2018-03-26T12:12:38.958Z,44.20
2018-03-26T12:15:06.410Z,44.30
2018-03-26T12:17:34.314Z,44.80
2018-03-26T12:20:14.281Z,46.10
2018-03-26T12:22:42.668Z,46.00
2018-03-26T12:25:12.898Z,46.40
2018-03-26T12:27:52.099Z,47.80
2018-03-26T12:30:20.310Z,49.00
2018-03-26T12:32:48.024Z,48.80
2018-03-26T12:35:27.321Z,49.50
2018-03-26T12:37:54.788Z,50.60
2018-03-26T12:40:34.134Z,51.30
2018-03-26T12:43:02.214Z,52.00
2018-03-26T12:45:41.386Z,52.70
2018-03-26T12:48:08.856Z,53.60
2018-03-26T12:50:48.222Z,54.30
2018-03-26T12:53:16.314Z,54.40
2018-03-26T12:55:44.270Z,54.40
2018-03-26T12:58:23.830Z,54.40
2018-03-26T13:01:06.655Z,54.40
2018-03-26T13:03:35.247Z,54.60
2018-03-26T13:06:03.476Z,54.90
2018-03-26T13:08:30.958Z,54.90
2018-03-26T13:10:58.730Z,54.60
2018-03-26T13:13:26.799Z,54.50
2018-03-26T13:15:54.266Z,54.70
2018-03-26T13:18:21.938Z,54.20
2018-03-26T13:20:50.579Z,54.30
2018-03-26T13:23:18.047Z,54.30
2018-03-26T13:25:45.622Z,54.10
2018-03-26T13:28:13.092Z,53.90
2018-03-26T13:30:40.554Z,53.80
2018-03-26T13:33:09.080Z,55.70
2018-03-26T13:35:36.582Z,55.70
2018-03-26T13:38:04.098Z,54.70
2018-03-26T13:40:32.006Z,56.50
2018-03-26T13:42:59.469Z,54.50
2018-03-26T13:45:27.136Z,53.90
2018-03-26T13:47:54.690Z,54.10
2018-03-26T13:50:22.875Z,53.10
2018-03-26T13:52:50.334Z,52.40
2018-03-26T13:55:17.787Z,53.90
2018-03-26T13:57:46.571Z,53.10
2018-03-26T14:00:14.130Z,53.90
2018-03-26T14:02:41.591Z,52.40
2018-03-26T14:05:09.058Z,52.40
2018-03-26T14:07:36.511Z,53.50
2018-03-26T14:10:15.943Z,52.40
2018-03-26T14:13:08.181Z,52.60
2018-03-26T14:15:47.554Z,52.50
2018-03-26T14:18:15.776Z,52.50
2018-03-26T14:20:43.313Z,52.50
2018-03-26T14:23:10.814Z,52.00
2018-03-26T14:25:38.271Z,53.10
2018-03-26T14:28:05.788Z,53.70
2018-03-26T14:30:33.574Z,54.00
2018-03-26T14:33:02.500Z,52.50
2018-03-26T14:35:44.894Z,53.60
2018-03-26T14:38:12.351Z,53.10
2018-03-26T14:40:40.747Z,53.80
2018-03-26T14:43:09.800Z,54.10
2018-03-26T14:45:37.173Z,54.00
2018-03-26T14:48:04.640Z,55.00
2018-03-26T14:50:32.094Z,54.10
2018-03-26T14:52:59.663Z,54.80
2018-03-26T14:55:28.651Z,53.60
2018-03-26T14:57:56.147Z,53.60
2018-03-26T15:00:25.744Z,53.50
2018-03-26T15:02:54.947Z,52.70
2018-03-26T15:05:23.199Z,52.50
2018-03-26T15:07:50.658Z,52.60
2018-03-26T15:10:18.124Z,52.60
2018-03-26T15:12:45.585Z,52.80
2018-03-26T15:15:13.938Z,53.90
2018-03-26T15:17:41.406Z,53.30
2018-03-26T15:20:08.874Z,53.60
2018-03-26T15:22:36.446Z,52.20
2018-03-26T15:25:05.099Z,52.10
2018-03-26T15:27:33.091Z,52.00
2018-03-26T15:30:00.546Z,52.80
2018-03-26T15:32:27.998Z,52.50
2018-03-26T15:34:55.471Z,52.40
2018-03-26T15:37:22.927Z,52.20
2018-03-26T15:39:50.382Z,52.70
2018-03-26T15:42:17.938Z,52.30
2018-03-26T15:44:45.399Z,52.60
2018-03-26T15:47:13.475Z,52.80
2018-03-26T15:49:40.942Z,53.50
2018-03-26T15:52:10.678Z,53.40
2018-03-26T15:54:38.151Z,53.30
2018-03-26T15:57:07.035Z,53.80
2018-03-26T15:59:34.491Z,54.00
2018-03-26T16:02:01.726Z,54.90
2018-03-26T16:04:29.946Z,54.80
2018-03-26T16:06:57.430Z,54.80
2018-03-26T16:09:25.906Z,55.00
2018-03-26T16:11:53.618Z,55.10
2018-03-26T16:14:21.259Z,55.00
2018-03-26T16:16:49.485Z,55.60
2018-03-26T16:19:17.131Z,55.60
2018-03-26T16:21:46.014Z,55.30
2018-03-26T16:24:13.546Z,55.60
2018-03-26T16:26:42.639Z,55.80
2018-03-26T16:29:11.303Z,56.40
2018-03-26T16:31:38.871Z,55.80
2018-03-26T16:34:06.346Z,56.10
2018-03-26T16:36:35.195Z,58.60
2018-03-26T16:39:02.806Z,58.60
2018-03-26T16:41:42.834Z,61.90
2018-03-26T16:44:11.191Z,61.90
2018-03-26T16:46:39.784Z,64.00
2018-03-26T16:49:07.459Z,65.80
2018-03-26T16:51:34.935Z,66.70
2018-03-26T16:54:03.155Z,68.00
2018-03-26T16:56:30.677Z,67.90
2018-03-26T16:58:58.903Z,69.10
2018-03-26T17:01:27.107Z,69.10
2018-03-26T17:03:54.578Z,69.20
2018-03-26T17:06:23.530Z,69.70
2018-03-26T17:08:50.995Z,69.00
2018-03-26T17:11:18.488Z,69.40
2018-03-26T17:13:46.728Z,70.40
2018-03-26T17:16:14.190Z,70.30
2018-03-26T17:18:42.113Z,71.00
2018-03-26T17:21:09.586Z,71.40
2018-03-26T17:23:37.035Z,71.80
2018-03-26T17:26:04.506Z,72.10
2018-03-26T17:28:32.746Z,72.30
2018-03-26T17:31:01.298Z,72.70
2018-03-26T17:33:28.870Z,72.60
2018-03-26T17:35:56.331Z,73.30
2018-03-26T17:38:23.898Z,73.00
2018-03-26T17:40:51.458Z,72.00
2018-03-26T17:43:18.914Z,72.40
2018-03-26T17:45:46.570Z,72.80
2018-03-26T17:48:14.189Z,72.00
2018-03-26T17:50:42.535Z,72.30
2018-03-26T17:53:10.758Z,71.90
2018-03-26T17:55:38.222Z,71.70
2018-03-26T17:58:05.681Z,72.30
2018-03-26T18:00:33.544Z,72.00
2018-03-26T18:03:01.006Z,72.40
2018-03-26T18:05:28.464Z,72.70
2018-03-26T18:07:56.414Z,73.10
2018-03-26T18:10:24.077Z,73.50
2018-03-26T18:12:53.035Z,74.10
2018-03-26T18:15:21.740Z,74.50
2018-03-26T18:17:49.254Z,74.50
2018-03-26T18:20:17.932Z,74.80
2018-03-26T18:22:45.393Z,74.80
2018-03-26T18:25:12.975Z,75.00
2018-03-26T18:27:40.755Z,75.00
2018-03-26T18:30:08.986Z,75.20
2018-03-26T18:32:36.466Z,75.20
2018-03-26T18:35:03.924Z,75.40
2018-03-26T18:37:31.435Z,75.50
2018-03-26T18:39:59.248Z,75.70
2018-03-26T18:42:27.433Z,75.90
2018-03-26T18:44:54.883Z,76.00
2018-03-26T18:47:22.354Z,76.10
2018-03-26T18:49:50.579Z,76.40
2018-03-26T18:52:18.035Z,76.30
2018-03-26T18:54:45.507Z,76.40
2018-03-26T18:57:13.608Z,76.60
2018-03-26T18:59:41.118Z,76.60
2018-03-26T19:02:08.575Z,76.80
2018-03-26T19:04:36.034Z,76.70
2018-03-26T19:07:04.951Z,76.70
2018-03-26T19:09:32.423Z,76.50
2018-03-26T19:12:00.651Z,76.40
2018-03-26T19:14:28.598Z,76.40
2018-03-26T19:16:56.950Z,76.70
2018-03-26T19:19:24.843Z,76.60
2018-03-26T19:21:53.938Z,74.60
2018-03-26T19:24:22.178Z,73.50
2018-03-26T19:26:49.863Z,73.60
2018-03-26T19:29:17.422Z,73.30
2018-03-26T19:31:44.894Z,74.50
2018-03-26T19:34:13.660Z,73.30
2018-03-26T19:36:41.112Z,73.20
2018-03-26T19:39:08.685Z,73.30
2018-03-26T19:41:37.426Z,73.40
2018-03-26T19:44:04.996Z,73.40
2018-03-26T19:46:32.486Z,73.30
2018-03-26T19:49:00.707Z,74.30
2018-03-26T19:51:28.928Z,74.30
2018-03-26T19:53:56.398Z,73.80
2018-03-26T19:56:24.634Z,74.40
2018-03-26T19:58:52.898Z,74.40
2018-03-26T20:01:20.426Z,74.10
2018-03-26T20:03:47.930Z,74.30
2018-03-26T20:06:15.530Z,74.70
2018-03-26T20:08:42.997Z,75.10
2018-03-26T20:11:10.506Z,75.40
2018-03-26T20:13:38.270Z,75.80
2018-03-26T20:16:05.781Z,75.90
2018-03-26T20:18:38.195Z,76.40
2018-03-26T20:21:05.663Z,76.40
2018-03-26T20:23:33.174Z,76.70
2018-03-26T20:26:00.624Z,77.30
2018-03-26T20:28:28.084Z,77.10
2018-03-26T20:30:55.662Z,77.20
2018-03-26T20:33:24.315Z,77.30
2018-03-26T20:35:52.382Z,77.20
2018-03-26T20:38:19.973Z,77.30
2018-03-26T20:40:48.161Z,77.00
2018-03-26T20:43:16.390Z,77.30
2018-03-26T20:45:43.862Z,77.30
2018-03-26T20:48:12.983Z,77.60
2018-03-26T20:50:42.551Z,77.60
2018-03-26T20:53:10.644Z,77.60
2018-03-26T20:55:38.106Z,77.80
2018-03-26T20:58:05.554Z,77.90
2018-03-26T21:00:33.176Z,77.80
2018-03-26T21:03:01.272Z,77.50
2018-03-26T21:05:29.389Z,77.70
2018-03-26T21:07:58.055Z,77.20
2018-03-26T21:10:26.038Z,77.20
2018-03-26T21:12:54.507Z,77.30
2018-03-26T21:15:22.073Z,77.00
2018-03-26T21:17:50.715Z,78.20
2018-03-26T21:20:18.174Z,78.20
2018-03-26T21:22:45.642Z,77.70
2018-03-26T21:25:13.094Z,77.30
2018-03-26T21:27:40.559Z,77.00
2018-03-26T21:30:08.038Z,77.00
2018-03-26T21:32:36.262Z,77.00
2018-03-26T21:35:03.714Z,77.00
2018-03-26T21:37:31.179Z,77.10
2018-03-26T21:39:59.507Z,77.30
2018-03-26T21:42:26.971Z,77.60
2018-03-26T21:44:55.252Z,77.50
2018-03-26T21:47:23.475Z,77.70
2018-03-26T21:49:50.942Z,77.70
2018-03-26T21:52:18.547Z,77.60
2018-03-26T21:54:47.398Z,77.60
2018-03-26T21:57:14.846Z,77.70
2018-03-26T21:59:42.319Z,77.60
2018-03-26T22:02:10.198Z,77.70
2018-03-26T22:04:37.656Z,77.50
2018-03-26T22:07:05.136Z,77.40
2018-03-26T22:09:32.595Z,77.60
2018-03-26T22:12:00.827Z,77.60
2018-03-26T22:14:28.290Z,77.60
2018-03-26T22:16:56.191Z,77.50
2018-03-26T22:19:24.038Z,78.00
2018-03-26T22:21:51.498Z,77.40
2018-03-26T22:24:19.348Z,77.70
2018-03-26T22:26:46.982Z,77.80
2018-03-26T22:29:15.202Z,77.70
2018-03-26T22:31:42.662Z,77.50
2018-03-26T22:34:10.126Z,77.40
2018-03-26T22:36:37.596Z,77.60
2018-03-26T22:39:05.052Z,77.70
2018-03-26T22:41:32.519Z,77.90
2018-03-26T22:44:00.794Z,77.80
2018-03-26T22:46:29.727Z,77.50
2018-03-26T22:48:57.422Z,77.40
2018-03-26T22:51:25.674Z,77.50
2018-03-26T22:53:53.306Z,77.30
2018-03-26T22:56:22.122Z,78.00
2018-03-26T22:58:49.634Z,77.90
2018-03-26T23:01:17.098Z,77.80
2018-03-26T23:03:45.330Z,77.50
2018-03-26T23:06:13.344Z,78.00
2018-03-26T23:08:40.820Z,78.00
2018-03-26T23:11:09.045Z,78.20
2018-03-26T23:13:36.535Z,78.20
2018-03-26T23:16:04.773Z,78.10
2018-03-26T23:18:32.288Z,78.10
2018-03-26T23:21:00.541Z,78.50
2018-03-26T23:23:28.008Z,78.50
2018-03-26T23:25:55.467Z,78.50
2018-03-26T23:28:23.027Z,78.00
2018-03-26T23:30:51.798Z,78.80
2018-03-26T23:33:20.278Z,78.30
2018-03-26T23:35:47.862Z,78.40
2018-03-26T23:38:15.310Z,78.80
2018-03-26T23:40:42.770Z,78.50
2018-03-26T23:43:10.331Z,78.40
2018-03-26T23:45:37.798Z,77.90
2018-03-26T23:48:06.037Z,78.30
2018-03-26T23:50:33.616Z,78.30
2018-03-26T23:53:01.144Z,78.40
2018-03-26T23:55:28.602Z,78.30
2018-03-26T23:57:56.066Z,78.30
